Eastborough, Kansas
Current Conditions -  °F | °C
As of 10:58 PM on Friday 28 Nov 2014 (Local Time) from KIAB Reporting Station
Clear Clear  
Wind Chill: 51°   Ceiling: Unl
Heat Index: 51°   Visibility: 10mi
Dew Point: 42°   Wind: 12mph
Humidity: 70%   Direction: 200°SSW
Pressure: 29.76"   Gusts: NA
Location:  37.6676°N, 97.2266°W
Report Text: KIAB 290458Z AUTO 20010KT 10SM CLR 11/06 A2976 RMK AO2 SLP080 T01080056 $
Loading
Personal Weather Stations






























Interactive Weather Map New forecast layout! Learn more

10-Day Weather Forecast

Advertisements
Track Severe Weather on mobile